createdAt,value
2018-09-19T00:00:44.740Z,4.83
2018-09-19T00:03:17.675Z,4.90
2018-09-19T00:05:50.276Z,5.13
2018-09-19T00:08:22.932Z,5.20
2018-09-19T00:10:58.325Z,5.50
2018-09-19T00:13:31.481Z,4.80
2018-09-19T00:16:04.137Z,5.27
2018-09-19T00:18:36.989Z,5.70
2018-09-19T00:21:09.428Z,5.50
2018-09-19T00:23:42.003Z,4.77
2018-09-19T00:26:15.297Z,4.80
2018-09-19T00:28:47.799Z,4.97
2018-09-19T00:31:22.029Z,6.22
2018-09-19T00:33:56.427Z,5.37
2018-09-19T00:36:29.188Z,5.13
2018-09-19T00:39:01.788Z,4.97
2018-09-19T00:41:35.509Z,5.30
2018-09-19T00:44:08.979Z,4.80
2018-09-19T00:46:42.192Z,4.67
2018-09-19T00:49:15.616Z,4.70
2018-09-19T00:51:48.198Z,5.20
2018-09-19T00:54:20.949Z,5.90
2018-09-19T00:56:54.753Z,6.40
2018-09-19T00:59:27.334Z,6.30
2018-09-19T01:01:59.869Z,5.47
2018-09-19T01:04:33.107Z,6.77
2018-09-19T01:07:06.008Z,5.70
2018-09-19T01:09:39.730Z,5.53
2018-09-19T01:12:15.385Z,5.37
2018-09-19T01:14:47.843Z,6.30
2018-09-19T01:17:20.520Z,6.90
2018-09-19T01:19:53.470Z,5.90
2018-09-19T01:22:26.074Z,5.50
2018-09-19T01:24:58.572Z,5.77
2018-09-19T01:27:31.424Z,5.43
2018-09-19T01:30:06.233Z,5.80
2018-09-19T01:32:38.832Z,4.43
2018-09-19T01:35:12.021Z,5.57
2018-09-19T01:37:44.599Z,6.10
2018-09-19T01:40:17.184Z,6.47
2018-09-19T01:42:50.161Z,6.20
2018-09-19T01:45:22.714Z,5.20
2018-09-19T01:47:55.245Z,5.83
2018-09-19T01:50:28.121Z,6.27
2018-09-19T01:53:00.619Z,5.23
2018-09-19T01:55:33.264Z,4.77
2018-09-19T01:58:07.486Z,5.80
2018-09-19T02:00:40.074Z,6.27
2018-09-19T02:03:12.552Z,4.97
2018-09-19T02:05:46.536Z,6.43
2018-09-19T02:08:19.772Z,5.97
2018-09-19T02:10:52.484Z,7.43
2018-09-19T02:13:25.583Z,7.62
2018-09-19T02:15:58.321Z,6.73
2018-09-19T02:18:30.940Z,6.40
2018-09-19T02:21:06.231Z,6.23
2018-09-19T02:23:39.620Z,7.00
2018-09-19T02:26:12.416Z,7.20
2018-09-19T02:28:45.796Z,7.27
2018-09-19T02:31:18.361Z,8.10
2018-09-19T02:33:51.992Z,7.83
2018-09-19T02:36:26.055Z,7.53
2018-09-19T02:38:58.661Z,7.30
2018-09-19T02:41:31.571Z,7.17
2018-09-19T02:44:06.352Z,8.43
2018-09-19T02:46:38.959Z,6.77
2018-09-19T02:49:11.464Z,7.10
2018-09-19T02:51:44.305Z,7.70
2018-09-19T02:54:16.812Z,8.10
2018-09-19T02:56:53.460Z,6.13
2018-09-19T02:59:28.466Z,5.93
2018-09-19T03:02:01.181Z,7.20
2018-09-19T03:04:34.130Z,6.40
2018-09-19T03:07:06.568Z,8.00
2018-09-19T03:09:39.040Z,7.10
2018-09-19T03:12:11.888Z,7.37
2018-09-19T03:14:44.448Z,7.57
2018-09-19T03:17:17.158Z,8.50
2018-09-19T03:19:50.811Z,7.63
2018-09-19T03:22:31.081Z,7.37
2018-09-19T03:25:04.563Z,8.35
2018-09-19T03:27:41.059Z,8.15
2018-09-19T03:30:16.419Z,6.77
2018-09-19T03:32:49.938Z,7.53
2018-09-19T03:35:23.352Z,7.93
2018-09-19T03:37:56.005Z,10.73
2018-09-19T03:40:28.547Z,8.30
2018-09-19T03:43:01.604Z,7.93
2018-09-19T03:45:34.142Z,7.47
2018-09-19T03:48:07.577Z,8.80
2018-09-19T03:50:40.508Z,7.40
2018-09-19T03:53:13.096Z,8.67
2018-09-19T03:55:45.654Z,7.47
2018-09-19T03:58:18.911Z,6.37
2018-09-19T04:00:52.540Z,6.93
2018-09-19T04:03:25.266Z,7.77
2018-09-19T04:05:58.055Z,7.80
2018-09-19T04:08:30.870Z,7.15
2018-09-19T04:11:03.344Z,7.00
2018-09-19T04:13:36.186Z,6.43
2018-09-19T04:16:08.709Z,7.67
2018-09-19T04:18:41.263Z,7.60
2018-09-19T04:21:14.115Z,7.40
2018-09-19T04:23:46.917Z,7.57
2018-09-19T04:26:19.485Z,7.23
2018-09-19T04:28:54.512Z,7.30
2018-09-19T04:31:27.081Z,6.60
2018-09-19T04:34:01.126Z,8.63
2018-09-19T04:36:34.649Z,8.10
2018-09-19T04:39:11.128Z,7.70
2018-09-19T04:41:43.797Z,8.90
2018-09-19T04:44:17.332Z,9.10
2018-09-19T04:46:49.980Z,9.53
2018-09-19T04:49:22.588Z,8.50
2018-09-19T04:51:55.518Z,7.68
2018-09-19T04:54:28.937Z,7.60
2018-09-19T04:57:01.409Z,7.73
2018-09-19T04:59:34.507Z,8.93
2018-09-19T05:02:06.974Z,9.90
2018-09-19T05:04:39.675Z,9.57
2018-09-19T05:07:13.418Z,9.30
2018-09-19T05:09:46.047Z,9.40
2018-09-19T05:12:18.701Z,9.83
2018-09-19T05:14:52.835Z,10.53
2018-09-19T05:17:25.274Z,9.80
2018-09-19T05:19:58.062Z,9.10
2018-09-19T05:22:32.495Z,8.83
2018-09-19T05:25:06.368Z,9.73
2018-09-19T05:27:38.852Z,9.23
2018-09-19T05:30:14.545Z,8.77
2018-09-19T05:32:47.066Z,9.10
2018-09-19T05:35:19.732Z,10.37
2018-09-19T05:37:53.711Z,9.37
2018-09-19T05:40:26.863Z,8.27
2018-09-19T05:43:00.341Z,9.80
2018-09-19T05:45:34.542Z,8.77
2018-09-19T05:48:07.272Z,8.93
2018-09-19T05:50:39.841Z,8.70
2018-09-19T05:53:15.293Z,9.50
2018-09-19T05:55:47.882Z,9.40
2018-09-19T05:58:20.439Z,8.37
2018-09-19T06:00:54.063Z,8.00
2018-09-19T06:03:26.684Z,7.77
2018-09-19T06:05:59.758Z,7.53
2018-09-19T06:08:33.312Z,8.27
2018-09-19T06:11:11.006Z,9.10
2018-09-19T06:13:44.044Z,7.80
2018-09-19T06:16:16.449Z,7.23
2018-09-19T06:18:49.265Z,8.13
2018-09-19T06:21:22.638Z,7.30
2018-09-19T06:23:56.307Z,7.60
2018-09-19T06:26:33.334Z,7.67
2018-09-19T06:29:07.100Z,7.67
2018-09-19T06:31:39.686Z,7.27
2018-09-19T06:34:12.753Z,7.33
2018-09-19T06:36:45.552Z,6.20
2018-09-19T06:39:18.024Z,5.90
2018-09-19T06:41:50.825Z,6.00
2018-09-19T06:44:24.582Z,6.13
2018-09-19T06:46:59.156Z,6.10
2018-09-19T06:49:32.301Z,5.87
2018-09-19T06:52:04.870Z,5.53
2018-09-19T06:54:37.507Z,5.90
2018-09-19T06:57:10.568Z,5.77
2018-09-19T06:59:43.247Z,6.63
2018-09-19T07:02:15.756Z,5.73
2018-09-19T07:04:49.668Z,5.73
2018-09-19T07:07:23.154Z,6.20
2018-09-19T07:09:55.797Z,5.80
2018-09-19T07:12:31.001Z,5.93
2018-09-19T07:15:05.932Z,5.87
2018-09-19T07:17:38.404Z,5.40
2018-09-19T07:20:11.349Z,5.80
2018-09-19T07:22:45.648Z,6.68
2018-09-19T07:25:18.870Z,5.63
2018-09-19T07:27:52.679Z,5.80
2018-09-19T07:30:26.175Z,5.40
2018-09-19T07:32:58.563Z,6.05
2018-09-19T07:35:33.696Z,6.20
2018-09-19T07:38:06.854Z,5.47
2018-09-19T07:40:41.092Z,5.83
2018-09-19T07:43:16.060Z,6.03
2018-09-19T07:45:50.539Z,6.03
2018-09-19T07:48:23.783Z,5.80
2018-09-19T07:50:56.215Z,6.40
2018-09-19T07:53:34.428Z,6.40
2018-09-19T07:56:06.956Z,5.97
2018-09-19T07:58:44.024Z,5.93
2018-09-19T08:01:17.128Z,6.20
2018-09-19T08:03:49.910Z,5.37
2018-09-19T08:06:23.830Z,6.03
2018-09-19T08:08:58.282Z,5.30
2018-09-19T08:11:31.362Z,6.43
2018-09-19T08:14:05.217Z,5.77
2018-09-19T08:16:41.631Z,5.80
2018-09-19T08:19:16.933Z,5.45
2018-09-19T08:21:52.192Z,5.07
2018-09-19T08:24:25.302Z,6.18
2018-09-19T08:26:57.887Z,5.57
2018-09-19T08:29:31.803Z,5.57
2018-09-19T08:32:08.082Z,5.13
2018-09-19T08:34:41.709Z,5.17
2018-09-19T08:37:15.250Z,4.93
2018-09-19T08:39:55.444Z,5.03
2018-09-19T08:42:28.608Z,4.87
2018-09-19T08:45:03.619Z,4.70
2018-09-19T08:47:37.044Z,5.43
2018-09-19T08:50:09.583Z,5.37
2018-09-19T08:52:42.146Z,5.53
2018-09-19T08:55:15.344Z,4.80
2018-09-19T08:57:47.938Z,4.73
2018-09-19T09:00:24.138Z,4.40
2018-09-19T09:02:57.547Z,4.30
2018-09-19T09:05:31.696Z,4.60
2018-09-19T09:08:07.212Z,4.63
2018-09-19T09:10:56.872Z,4.93
2018-09-19T09:13:29.505Z,5.07
2018-09-19T09:18:43.888Z,4.40
2018-09-19T09:21:18.911Z,4.90
2018-09-19T09:23:52.163Z,5.07
2018-09-19T09:26:28.294Z,4.67
2018-09-19T09:29:17.731Z,4.17
2018-09-19T09:31:51.442Z,3.97
2018-09-19T09:34:24.593Z,4.20
2018-09-19T09:36:58.515Z,4.27
2018-09-19T09:39:31.990Z,4.57
2018-09-19T09:42:05.794Z,4.00
2018-09-19T09:44:38.455Z,4.30
2018-09-19T09:47:13.752Z,4.78
2018-09-19T09:49:48.184Z,4.60
2018-09-19T09:52:23.399Z,4.00
2018-09-19T09:54:56.751Z,4.73
2018-09-19T09:57:29.697Z,3.73
2018-09-19T10:00:08.172Z,4.53
2018-09-19T10:02:43.427Z,3.87
2018-09-19T10:05:17.317Z,4.43
2018-09-19T10:07:51.744Z,4.90
2018-09-19T10:10:30.378Z,3.73
2018-09-19T10:13:04.839Z,4.47
2018-09-19T10:15:40.889Z,4.30
2018-09-19T10:18:21.690Z,4.23
2018-09-19T10:20:54.254Z,4.33
2018-09-19T10:23:28.276Z,4.50
2018-09-19T10:26:03.605Z,4.00
2018-09-19T10:28:38.322Z,4.00
2018-09-19T10:31:11.966Z,4.40
2018-09-19T10:33:44.770Z,4.43
2018-09-19T10:36:18.884Z,4.00
2018-09-19T10:38:54.610Z,4.10
2018-09-19T10:41:29.825Z,4.37
2018-09-19T10:44:10.611Z,4.57
2018-09-19T10:46:49.905Z,4.20
2018-09-19T10:49:24.958Z,4.07
2018-09-19T10:52:00.429Z,4.10
2018-09-19T10:54:35.650Z,3.70
2018-09-19T10:57:12.848Z,4.18
2018-09-19T10:59:46.727Z,3.80
2018-09-19T11:02:19.328Z,4.10
2018-09-19T11:04:53.913Z,3.67
2018-09-19T11:07:30.212Z,4.00
2018-09-19T11:10:06.633Z,3.40
2018-09-19T11:12:39.227Z,3.20
2018-09-19T11:15:18.648Z,3.13
2018-09-19T11:17:58.321Z,3.67
2018-09-19T11:20:31.732Z,3.30
2018-09-19T11:23:05.828Z,3.45
2018-09-19T11:25:44.957Z,3.03
2018-09-19T11:28:17.685Z,3.20
2018-09-19T11:30:50.744Z,3.37
2018-09-19T11:33:35.334Z,3.50
2018-09-19T11:36:09.537Z,3.35
2018-09-19T11:38:42.616Z,3.30
2018-09-19T11:41:17.713Z,3.10
2018-09-19T11:43:51.442Z,3.03
2018-09-19T11:46:26.276Z,3.87
2018-09-19T11:49:00.078Z,3.20
2018-09-19T11:51:33.286Z,3.10
2018-09-19T11:54:07.434Z,3.40
2018-09-19T11:56:42.668Z,3.33
2018-09-19T11:59:18.714Z,2.80
2018-09-19T12:01:57.192Z,3.40
2018-09-19T12:04:30.715Z,3.13
2018-09-19T12:07:04.444Z,3.67
2018-09-19T12:09:37.577Z,2.67
2018-09-19T12:12:10.687Z,3.10
2018-09-19T12:14:44.722Z,2.80
2018-09-19T12:17:20.398Z,2.80
2018-09-19T12:19:54.924Z,3.10
2018-09-19T12:22:30.303Z,3.30
2018-09-19T12:25:04.451Z,3.17
2018-09-19T12:27:39.996Z,3.43
2018-09-19T12:30:17.581Z,3.57
2018-09-19T12:32:50.680Z,3.72
2018-09-19T12:35:24.787Z,3.80
2018-09-19T12:37:58.645Z,3.87
2018-09-19T12:40:31.256Z,3.17
2018-09-19T12:43:05.176Z,4.00
2018-09-19T12:45:39.144Z,2.90
2018-09-19T12:48:13.143Z,3.37
2018-09-19T12:50:48.832Z,3.73
2018-09-19T12:53:24.808Z,3.50
2018-09-19T12:55:57.840Z,3.63
2018-09-19T12:58:32.032Z,3.40
2018-09-19T13:01:06.317Z,3.20
2018-09-19T13:03:46.877Z,3.43
2018-09-19T13:06:21.766Z,3.50
2018-09-19T13:08:57.011Z,3.22
2018-09-19T13:11:30.649Z,3.40
2018-09-19T13:14:04.279Z,3.60
2018-09-19T13:16:39.525Z,3.20
2018-09-19T13:19:12.764Z,3.60
2018-09-19T13:21:47.661Z,3.53
2018-09-19T13:24:20.364Z,3.20
2018-09-19T13:26:56.538Z,3.30
2018-09-19T13:29:29.952Z,3.77
2018-09-19T13:32:02.392Z,3.03
2018-09-19T13:34:37.040Z,3.57
2018-09-19T13:37:10.275Z,3.43
2018-09-19T13:39:44.384Z,3.80
2018-09-19T13:42:17.053Z,3.50
2018-09-19T13:44:51.444Z,3.40
2018-09-19T13:47:24.605Z,3.57
2018-09-19T13:50:29.904Z,3.43
2018-09-19T13:53:05.654Z,3.33
2018-09-19T13:55:38.623Z,3.30
2018-09-19T13:58:12.356Z,3.50
2018-09-19T14:00:47.752Z,3.33
2018-09-19T14:03:24.086Z,3.20
2018-09-19T14:06:00.278Z,4.10
2018-09-19T14:08:42.837Z,3.90
2018-09-19T14:11:24.971Z,3.40
2018-09-19T14:13:58.220Z,3.20
2018-09-19T14:16:32.053Z,3.20
2018-09-19T14:19:07.406Z,3.10
2018-09-19T14:21:42.672Z,3.30
2018-09-19T14:24:16.431Z,3.90
2018-09-19T14:26:49.544Z,3.42
2018-09-19T14:29:25.733Z,3.23
2018-09-19T14:32:00.983Z,3.60
2018-09-19T14:34:35.945Z,3.43
2018-09-19T14:37:10.722Z,3.70
2018-09-19T14:39:59.957Z,3.20
2018-09-19T14:42:46.828Z,3.37
2018-09-19T14:45:21.732Z,3.37
2018-09-19T14:47:58.904Z,3.40
2018-09-19T14:50:34.824Z,3.80
2018-09-19T14:53:11.677Z,3.30
2018-09-19T14:55:46.142Z,3.23
2018-09-19T14:58:19.892Z,3.23
2018-09-19T15:00:52.445Z,3.50
2018-09-19T15:03:25.045Z,3.40
2018-09-19T15:06:01.484Z,3.07
2018-09-19T15:08:38.705Z,3.30
2018-09-19T15:11:18.297Z,3.62
2018-09-19T15:13:52.337Z,3.60
2018-09-19T15:16:27.315Z,3.67
2018-09-19T15:19:00.697Z,3.30
2018-09-19T15:21:33.757Z,3.58
2018-09-19T15:24:06.376Z,4.07
2018-09-19T15:26:40.079Z,3.42
2018-09-19T15:29:16.800Z,3.60
2018-09-19T15:31:51.259Z,3.10
2018-09-19T15:34:27.985Z,3.60
2018-09-19T15:37:03.064Z,3.70
2018-09-19T15:39:38.220Z,3.30
2018-09-19T15:42:12.475Z,3.20
2018-09-19T15:44:49.550Z,3.87
2018-09-19T15:47:25.415Z,3.63
2018-09-19T15:50:04.945Z,3.20
2018-09-19T15:52:38.290Z,3.90
2018-09-19T15:55:12.134Z,3.67
2018-09-19T15:57:46.927Z,3.20
2018-09-19T16:00:20.814Z,3.47
2018-09-19T16:02:54.464Z,3.83
2018-09-19T16:05:27.374Z,3.33
2018-09-19T16:08:01.724Z,3.47
2018-09-19T16:10:35.527Z,3.20
2018-09-19T16:13:08.973Z,3.50
2018-09-19T16:15:46.074Z,3.33
2018-09-19T16:18:26.290Z,3.87
2018-09-19T16:21:00.561Z,3.40
2018-09-19T16:23:34.712Z,3.00
2018-09-19T16:26:08.760Z,3.90
2018-09-19T16:28:44.808Z,3.23
2018-09-19T16:31:18.106Z,3.30
2018-09-19T16:33:51.953Z,3.05
2018-09-19T16:36:24.980Z,3.17
2018-09-19T16:38:59.047Z,3.30
2018-09-19T16:41:32.281Z,3.23
2018-09-19T16:44:07.482Z,3.50
2018-09-19T16:46:42.097Z,3.33
2018-09-19T16:49:16.056Z,4.20
2018-09-19T16:51:50.760Z,3.63
2018-09-19T16:54:24.620Z,2.97
2018-09-19T16:57:00.552Z,3.30
2018-09-19T16:59:35.249Z,3.20
2018-09-19T17:02:09.248Z,3.62
2018-09-19T17:04:44.774Z,3.07
2018-09-19T17:07:23.841Z,3.30
2018-09-19T17:10:03.720Z,3.67
2018-09-19T17:12:40.030Z,2.90
2018-09-19T17:15:18.656Z,3.00
2018-09-19T17:17:54.601Z,2.70
2018-09-19T17:20:33.389Z,3.00
2018-09-19T17:23:07.624Z,3.40
2018-09-19T17:25:41.336Z,3.80
2018-09-19T17:28:16.568Z,3.37
2018-09-19T17:30:49.504Z,3.40
2018-09-19T17:33:22.841Z,3.20
2018-09-19T17:35:55.459Z,3.33
2018-09-19T17:38:31.758Z,3.33
2018-09-19T17:41:05.012Z,3.63
2018-09-19T17:43:39.516Z,3.37
2018-09-19T17:46:12.396Z,4.00
2018-09-19T17:48:45.352Z,3.47
2018-09-19T17:51:21.866Z,3.53
2018-09-19T17:53:59.222Z,3.07
2018-09-19T17:56:34.807Z,3.13
2018-09-19T17:59:10.147Z,3.30
2018-09-19T18:01:46.001Z,3.35
2018-09-19T18:04:24.489Z,3.50
2018-09-19T18:06:57.425Z,3.40
2018-09-19T18:09:30.077Z,3.37
2018-09-19T18:12:05.239Z,3.13
2018-09-19T18:14:40.783Z,3.70
2018-09-19T18:17:14.002Z,3.40
2018-09-19T18:19:49.618Z,3.50
2018-09-19T18:22:22.187Z,3.00
2018-09-19T18:25:00.170Z,2.83
2018-09-19T18:27:34.439Z,3.30
2018-09-19T18:30:08.524Z,3.50
2018-09-19T18:32:44.757Z,3.67
2018-09-19T18:35:19.525Z,4.57
2018-09-19T18:37:54.441Z,3.37
2018-09-19T18:40:28.602Z,3.07
2018-09-19T18:43:04.081Z,3.78
2018-09-19T18:45:37.757Z,3.47
2018-09-19T18:48:17.240Z,3.27
2018-09-19T18:50:51.364Z,3.90
2018-09-19T18:53:27.292Z,3.27
2018-09-19T18:56:02.979Z,3.43
2018-09-19T18:58:39.897Z,3.47
2018-09-19T19:01:15.908Z,3.63
2018-09-19T19:03:49.074Z,3.83
2018-09-19T19:06:23.198Z,3.47
2018-09-19T19:08:56.439Z,3.50
2018-09-19T19:11:32.233Z,4.10
2018-09-19T19:14:07.381Z,3.20
2018-09-19T19:16:42.336Z,3.40
2018-09-19T19:19:16.824Z,4.15
2018-09-19T19:21:56.179Z,3.73
2018-09-19T19:24:32.686Z,4.17
2018-09-19T19:27:07.242Z,3.80
2018-09-19T19:29:41.652Z,4.17
2018-09-19T19:32:15.546Z,4.03
2018-09-19T19:34:48.753Z,3.70
2018-09-19T19:37:21.445Z,4.20
2018-09-19T19:39:55.921Z,3.70
2018-09-19T19:42:28.524Z,3.47
2018-09-19T19:45:03.382Z,4.73
2018-09-19T19:47:36.429Z,4.40
2018-09-19T19:50:14.010Z,3.47
2018-09-19T19:52:47.585Z,4.60
2018-09-19T19:55:23.065Z,3.90
2018-09-19T19:57:58.461Z,3.40
2018-09-19T20:00:35.926Z,3.73
2018-09-19T20:03:13.103Z,5.00
2018-09-19T20:05:46.337Z,4.47
2018-09-19T20:08:19.799Z,4.60
2018-09-19T20:10:55.835Z,3.70
2018-09-19T20:13:29.932Z,3.70
2018-09-19T20:16:05.453Z,4.07
2018-09-19T20:18:39.899Z,4.17
2018-09-19T20:21:16.429Z,3.53
2018-09-19T20:23:49.685Z,4.53
2018-09-19T20:26:22.357Z,3.67
2018-09-19T20:28:56.779Z,4.40
2018-09-19T20:31:33.733Z,4.45
2018-09-19T20:34:07.399Z,4.63
2018-09-19T20:36:40.179Z,4.97
2018-09-19T20:39:15.841Z,6.37
2018-09-19T20:41:49.560Z,4.43
2018-09-19T20:44:22.556Z,4.77
2018-09-19T20:46:56.138Z,3.37
2018-09-19T20:49:30.200Z,4.10
2018-09-19T20:52:03.690Z,4.37
2018-09-19T20:54:38.957Z,4.47
2018-09-19T20:57:12.593Z,4.10
2018-09-19T20:59:47.003Z,4.10
2018-09-19T21:02:22.626Z,4.67
2018-09-19T21:04:56.523Z,4.27
2018-09-19T21:07:29.042Z,5.47
2018-09-19T21:10:04.651Z,4.43
2018-09-19T21:12:38.493Z,9.07
2018-09-19T21:15:14.292Z,4.67
2018-09-19T21:17:48.152Z,4.73
2018-09-19T21:20:21.002Z,4.63
2018-09-19T21:22:55.161Z,5.20
2018-09-19T21:25:29.853Z,4.30
2018-09-19T21:28:03.875Z,4.70
2018-09-19T21:30:39.331Z,4.82
2018-09-19T21:33:12.921Z,4.70
2018-09-19T21:35:47.289Z,4.67
2018-09-19T21:38:22.012Z,4.73
2018-09-19T21:40:55.028Z,5.10
2018-09-19T21:43:43.788Z,3.93
2018-09-19T21:46:21.983Z,4.37
2018-09-19T21:48:55.944Z,5.17
2018-09-19T21:51:28.660Z,5.03
2018-09-19T21:54:04.281Z,5.10
2018-09-19T21:56:37.232Z,5.53
2018-09-19T21:59:09.779Z,4.43
2018-09-19T22:01:43.162Z,4.43
2018-09-19T22:04:15.608Z,3.80
2018-09-19T22:06:53.843Z,4.90
2018-09-19T22:09:28.166Z,4.13
2018-09-19T22:12:00.786Z,4.63
2018-09-19T22:14:34.845Z,4.70
2018-09-19T22:17:08.469Z,4.20
2018-09-19T22:19:42.815Z,4.47
2018-09-19T22:22:17.295Z,4.37
2018-09-19T22:24:49.803Z,4.33
2018-09-19T22:27:27.082Z,4.40
2018-09-19T22:29:59.644Z,4.03
2018-09-19T22:32:33.441Z,4.43
2018-09-19T22:35:08.860Z,3.80
2018-09-19T22:37:42.480Z,4.33
2018-09-19T22:40:15.581Z,4.53
2018-09-19T22:42:50.412Z,4.07
2018-09-19T22:45:23.878Z,4.80
2018-09-19T22:47:56.732Z,4.50
2018-09-19T22:50:29.781Z,4.07
2018-09-19T22:53:02.941Z,4.00
2018-09-19T22:55:37.047Z,4.45
2018-09-19T22:58:10.880Z,4.50
2018-09-19T23:00:47.763Z,4.53
2018-09-19T23:03:20.934Z,5.10
2018-09-19T23:05:54.308Z,4.50
2018-09-19T23:08:29.656Z,4.43
2018-09-19T23:11:02.857Z,4.60
2018-09-19T23:13:36.008Z,4.40
2018-09-19T23:16:08.536Z,4.78
2018-09-19T23:18:41.156Z,4.57
2018-09-19T23:21:14.173Z,4.80
2018-09-19T23:23:46.700Z,4.13
2018-09-19T23:26:19.341Z,4.60
2018-09-19T23:28:53.246Z,5.03
2018-09-19T23:31:25.913Z,4.60
2018-09-19T23:33:58.426Z,5.00
2018-09-19T23:36:31.240Z,4.37
2018-09-19T23:39:07.091Z,5.13
2018-09-19T23:41:39.813Z,4.83
2018-09-19T23:44:12.842Z,4.53
2018-09-19T23:46:45.482Z,4.17
2018-09-19T23:49:19.297Z,4.30
2018-09-19T23:51:54.733Z,4.93
2018-09-19T23:54:29.648Z,5.00
2018-09-19T23:57:02.612Z,5.00
2018-09-19T23:59:37.127Z,4.67
